sensor_id;sensor_type;location;lat;lon;timestamp;P1;durP1;ratioP1;P2;durP2;ratioP2
31724;SDS011;18306;40.960;14.836;2024-03-22T00:00:00;14.77;;;10.40;;
31724;SDS011;18306;40.960;14.836;2024-03-22T00:02:27;18.40;;;9.27;;
31724;SDS011;18306;40.960;14.836;2024-03-22T00:04:53;15.90;;;9.55;;
31724;SDS011;18306;40.960;14.836;2024-03-22T00:07:21;13.02;;;9.25;;
31724;SDS011;18306;40.960;14.836;2024-03-22T00:09:47;14.80;;;10.50;;
31724;SDS011;18306;40.960;14.836;2024-03-22T00:12:14;15.60;;;10.35;;
31724;SDS011;18306;40.960;14.836;2024-03-22T00:14:41;14.43;;;10.68;;
31724;SDS011;18306;40.960;14.836;2024-03-22T00:17:08;13.93;;;9.85;;
31724;SDS011;18306;40.960;14.836;2024-03-22T00:19:35;13.90;;;9.35;;
31724;SDS011;18306;40.960;14.836;2024-03-22T00:22:02;16.63;;;9.38;;
31724;SDS011;18306;40.960;14.836;2024-03-22T00:24:29;15.50;;;9.20;;
31724;SDS011;18306;40.960;14.836;2024-03-22T00:26:56;12.30;;;9.15;;
31724;SDS011;18306;40.960;14.836;2024-03-22T00:29:23;13.27;;;9.65;;
31724;SDS011;18306;40.960;14.836;2024-03-22T00:31:50;13.60;;;8.73;;
31724;SDS011;18306;40.960;14.836;2024-03-22T00:34:17;12.05;;;8.60;;
31724;SDS011;18306;40.960;14.836;2024-03-22T00:36:44;13.13;;;9.32;;
31724;SDS011;18306;40.960;14.836;2024-03-22T00:39:11;18.10;;;9.75;;
31724;SDS011;18306;40.960;14.836;2024-03-22T00:41:39;13.57;;;9.57;;
31724;SDS011;18306;40.960;14.836;2024-03-22T00:44:05;12.02;;;8.15;;
31724;SDS011;18306;40.960;14.836;2024-03-22T00:46:32;15.55;;;7.72;;
31724;SDS011;18306;40.960;14.836;2024-03-22T00:48:59;14.18;;;8.45;;
31724;SDS011;18306;40.960;14.836;2024-03-22T00:51:26;12.25;;;8.25;;
31724;SDS011;18306;40.960;14.836;2024-03-22T00:53:54;12.55;;;7.25;;
31724;SDS011;18306;40.960;14.836;2024-03-22T00:56:21;10.35;;;7.57;;
31724;SDS011;18306;40.960;14.836;2024-03-22T00:58:48;12.43;;;7.38;;
31724;SDS011;18306;40.960;14.836;2024-03-22T01:01:15;15.35;;;7.97;;
31724;SDS011;18306;40.960;14.836;2024-03-22T01:03:42;10.52;;;7.03;;
31724;SDS011;18306;40.960;14.836;2024-03-22T01:06:09;12.77;;;7.32;;
31724;SDS011;18306;40.960;14.836;2024-03-22T01:08:36;12.07;;;7.40;;
31724;SDS011;18306;40.960;14.836;2024-03-22T01:11:03;11.90;;;7.38;;
31724;SDS011;18306;40.960;14.836;2024-03-22T01:13:30;12.20;;;7.47;;
31724;SDS011;18306;40.960;14.836;2024-03-22T01:15:57;10.13;;;7.22;;
31724;SDS011;18306;40.960;14.836;2024-03-22T01:18:24;14.15;;;7.88;;
31724;SDS011;18306;40.960;14.836;2024-03-22T01:20:51;11.88;;;7.78;;
31724;SDS011;18306;40.960;14.836;2024-03-22T01:23:18;10.02;;;6.97;;
31724;SDS011;18306;40.960;14.836;2024-03-22T01:25:45;10.18;;;7.47;;
31724;SDS011;18306;40.960;14.836;2024-03-22T01:28:12;9.65;;;6.18;;
31724;SDS011;18306;40.960;14.836;2024-03-22T01:30:39;12.00;;;7.60;;
31724;SDS011;18306;40.960;14.836;2024-03-22T01:33:05;11.23;;;7.25;;
31724;SDS011;18306;40.960;14.836;2024-03-22T01:35:32;10.85;;;7.82;;
31724;SDS011;18306;40.960;14.836;2024-03-22T01:37:59;9.85;;;6.70;;
31724;SDS011;18306;40.960;14.836;2024-03-22T01:40:37;10.68;;;6.22;;
31724;SDS011;18306;40.960;14.836;2024-03-22T01:43:04;9.90;;;6.65;;
31724;SDS011;18306;40.960;14.836;2024-03-22T01:45:32;14.32;;;7.40;;
31724;SDS011;18306;40.960;14.836;2024-03-22T01:47:59;12.90;;;7.47;;
31724;SDS011;18306;40.960;14.836;2024-03-22T01:50:27;13.60;;;7.57;;
31724;SDS011;18306;40.960;14.836;2024-03-22T01:52:54;12.35;;;8.20;;
31724;SDS011;18306;40.960;14.836;2024-03-22T01:55:21;15.35;;;8.88;;
31724;SDS011;18306;40.960;14.836;2024-03-22T01:57:49;11.55;;;8.20;;
31724;SDS011;18306;40.960;14.836;2024-03-22T02:00:20;15.18;;;9.77;;
31724;SDS011;18306;40.960;14.836;2024-03-22T02:02:47;12.20;;;8.23;;
31724;SDS011;18306;40.960;14.836;2024-03-22T02:05:14;13.35;;;7.95;;
31724;SDS011;18306;40.960;14.836;2024-03-22T02:07:45;12.35;;;7.72;;
31724;SDS011;18306;40.960;14.836;2024-03-22T02:10:12;13.02;;;8.10;;
31724;SDS011;18306;40.960;14.836;2024-03-22T02:12:40;10.18;;;7.18;;
31724;SDS011;18306;40.960;14.836;2024-03-22T02:15:08;10.38;;;7.13;;
31724;SDS011;18306;40.960;14.836;2024-03-22T02:17:35;12.60;;;8.15;;
31724;SDS011;18306;40.960;14.836;2024-03-22T02:20:02;14.85;;;9.52;;
31724;SDS011;18306;40.960;14.836;2024-03-22T02:22:31;15.52;;;9.50;;
31724;SDS011;18306;40.960;14.836;2024-03-22T02:24:58;11.82;;;8.57;;
31724;SDS011;18306;40.960;14.836;2024-03-22T02:27:25;15.25;;;9.70;;
31724;SDS011;18306;40.960;14.836;2024-03-22T02:29:52;13.32;;;10.02;;
31724;SDS011;18306;40.960;14.836;2024-03-22T02:32:19;15.65;;;9.82;;
31724;SDS011;18306;40.960;14.836;2024-03-22T02:34:46;16.45;;;10.30;;
31724;SDS011;18306;40.960;14.836;2024-03-22T02:37:13;15.02;;;10.50;;
31724;SDS011;18306;40.960;14.836;2024-03-22T02:39:40;14.15;;;9.63;;
31724;SDS011;18306;40.960;14.836;2024-03-22T02:42:07;16.38;;;9.40;;
31724;SDS011;18306;40.960;14.836;2024-03-22T02:44:34;14.85;;;9.52;;
31724;SDS011;18306;40.960;14.836;2024-03-22T02:47:04;17.77;;;10.35;;
31724;SDS011;18306;40.960;14.836;2024-03-22T02:49:31;17.67;;;11.00;;
31724;SDS011;18306;40.960;14.836;2024-03-22T02:51:58;17.20;;;10.95;;
31724;SDS011;18306;40.960;14.836;2024-03-22T02:54:25;17.65;;;11.77;;
31724;SDS011;18306;40.960;14.836;2024-03-22T02:56:52;16.65;;;12.02;;
31724;SDS011;18306;40.960;14.836;2024-03-22T02:59:19;18.30;;;12.60;;
31724;SDS011;18306;40.960;14.836;2024-03-22T03:01:46;16.13;;;12.65;;
31724;SDS011;18306;40.960;14.836;2024-03-22T03:04:13;18.45;;;11.63;;
31724;SDS011;18306;40.960;14.836;2024-03-22T03:06:40;16.10;;;10.73;;
31724;SDS011;18306;40.960;14.836;2024-03-22T03:09:06;14.52;;;10.30;;
31724;SDS011;18306;40.960;14.836;2024-03-22T03:11:34;15.13;;;11.18;;
31724;SDS011;18306;40.960;14.836;2024-03-22T03:14:01;18.10;;;11.98;;
31724;SDS011;18306;40.960;14.836;2024-03-22T03:16:28;20.65;;;13.48;;
31724;SDS011;18306;40.960;14.836;2024-03-22T03:18:55;22.63;;;12.38;;
31724;SDS011;18306;40.960;14.836;2024-03-22T03:21:22;16.38;;;11.57;;
31724;SDS011;18306;40.960;14.836;2024-03-22T03:23:49;16.98;;;11.75;;
31724;SDS011;18306;40.960;14.836;2024-03-22T03:26:16;17.90;;;10.60;;
31724;SDS011;18306;40.960;14.836;2024-03-22T03:28:43;19.85;;;12.98;;
31724;SDS011;18306;40.960;14.836;2024-03-22T03:31:10;17.23;;;11.38;;
31724;SDS011;18306;40.960;14.836;2024-03-22T03:33:36;17.08;;;11.60;;
31724;SDS011;18306;40.960;14.836;2024-03-22T03:36:03;19.20;;;11.75;;
31724;SDS011;18306;40.960;14.836;2024-03-22T03:38:31;19.55;;;11.52;;
31724;SDS011;18306;40.960;14.836;2024-03-22T03:40:58;17.73;;;12.20;;
31724;SDS011;18306;40.960;14.836;2024-03-22T03:43:24;19.10;;;12.05;;
31724;SDS011;18306;40.960;14.836;2024-03-22T03:45:52;18.10;;;12.13;;
31724;SDS011;18306;40.960;14.836;2024-03-22T03:48:20;18.77;;;12.43;;
31724;SDS011;18306;40.960;14.836;2024-03-22T03:50:56;18.48;;;13.00;;
31724;SDS011;18306;40.960;14.836;2024-03-22T03:53:31;18.20;;;11.40;;
31724;SDS011;18306;40.960;14.836;2024-03-22T03:55:58;20.70;;;14.32;;
31724;SDS011;18306;40.960;14.836;2024-03-22T03:58:25;16.38;;;12.00;;
31724;SDS011;18306;40.960;14.836;2024-03-22T04:00:52;19.02;;;10.90;;
31724;SDS011;18306;40.960;14.836;2024-03-22T04:03:19;17.13;;;10.90;;
31724;SDS011;18306;40.960;14.836;2024-03-22T04:05:46;18.98;;;12.50;;
31724;SDS011;18306;40.960;14.836;2024-03-22T04:08:24;15.32;;;12.00;;
31724;SDS011;18306;40.960;14.836;2024-03-22T04:10:54;21.45;;;12.23;;
31724;SDS011;18306;40.960;14.836;2024-03-22T04:13:26;16.13;;;12.20;;
31724;SDS011;18306;40.960;14.836;2024-03-22T04:15:54;17.13;;;12.20;;
31724;SDS011;18306;40.960;14.836;2024-03-22T04:18:24;16.33;;;11.85;;
31724;SDS011;18306;40.960;14.836;2024-03-22T04:20:55;17.35;;;12.48;;
31724;SDS011;18306;40.960;14.836;2024-03-22T04:23:23;19.15;;;13.30;;
31724;SDS011;18306;40.960;14.836;2024-03-22T04:25:57;16.90;;;12.48;;
31724;SDS011;18306;40.960;14.836;2024-03-22T04:28:26;19.42;;;11.77;;
31724;SDS011;18306;40.960;14.836;2024-03-22T04:31:04;16.30;;;11.68;;
31724;SDS011;18306;40.960;14.836;2024-03-22T04:33:59;22.05;;;13.48;;
31724;SDS011;18306;40.960;14.836;2024-03-22T04:36:26;17.20;;;12.68;;
31724;SDS011;18306;40.960;14.836;2024-03-22T04:38:53;17.77;;;12.05;;
31724;SDS011;18306;40.960;14.836;2024-03-22T04:41:20;17.58;;;11.13;;
31724;SDS011;18306;40.960;14.836;2024-03-22T04:43:46;17.52;;;12.10;;
31724;SDS011;18306;40.960;14.836;2024-03-22T04:46:13;17.42;;;12.57;;
31724;SDS011;18306;40.960;14.836;2024-03-22T04:48:40;19.92;;;12.15;;
31724;SDS011;18306;40.960;14.836;2024-03-22T04:51:07;18.70;;;12.10;;
31724;SDS011;18306;40.960;14.836;2024-03-22T04:53:34;19.23;;;12.07;;
31724;SDS011;18306;40.960;14.836;2024-03-22T04:56:01;21.30;;;11.75;;
31724;SDS011;18306;40.960;14.836;2024-03-22T04:58:29;20.52;;;11.48;;
31724;SDS011;18306;40.960;14.836;2024-03-22T05:00:56;15.27;;;11.48;;
31724;SDS011;18306;40.960;14.836;2024-03-22T05:03:24;15.52;;;11.02;;
31724;SDS011;18306;40.960;14.836;2024-03-22T05:05:51;18.90;;;11.02;;
31724;SDS011;18306;40.960;14.836;2024-03-22T05:08:18;16.10;;;11.75;;
31724;SDS011;18306;40.960;14.836;2024-03-22T05:10:45;19.20;;;14.25;;
31724;SDS011;18306;40.960;14.836;2024-03-22T05:13:11;23.17;;;15.02;;
31724;SDS011;18306;40.960;14.836;2024-03-22T05:15:38;22.83;;;15.85;;
31724;SDS011;18306;40.960;14.836;2024-03-22T05:18:05;25.00;;;15.10;;
31724;SDS011;18306;40.960;14.836;2024-03-22T05:20:33;21.02;;;14.32;;
31724;SDS011;18306;40.960;14.836;2024-03-22T05:22:59;22.15;;;14.50;;
31724;SDS011;18306;40.960;14.836;2024-03-22T05:25:26;23.00;;;13.95;;
31724;SDS011;18306;40.960;14.836;2024-03-22T05:27:54;23.38;;;12.55;;
31724;SDS011;18306;40.960;14.836;2024-03-22T05:30:20;20.35;;;12.73;;
31724;SDS011;18306;40.960;14.836;2024-03-22T05:32:47;19.55;;;13.18;;
31724;SDS011;18306;40.960;14.836;2024-03-22T05:35:16;16.52;;;12.20;;
31724;SDS011;18306;40.960;14.836;2024-03-22T05:37:44;16.73;;;10.75;;
31724;SDS011;18306;40.960;14.836;2024-03-22T05:40:11;15.73;;;10.77;;
31724;SDS011;18306;40.960;14.836;2024-03-22T05:42:38;18.75;;;11.95;;
31724;SDS011;18306;40.960;14.836;2024-03-22T05:45:05;16.33;;;10.48;;
31724;SDS011;18306;40.960;14.836;2024-03-22T05:47:33;17.35;;;10.50;;
31724;SDS011;18306;40.960;14.836;2024-03-22T05:50:00;11.68;;;9.57;;
31724;SDS011;18306;40.960;14.836;2024-03-22T05:52:29;17.58;;;11.35;;
31724;SDS011;18306;40.960;14.836;2024-03-22T05:54:56;17.58;;;11.15;;
31724;SDS011;18306;40.960;14.836;2024-03-22T05:57:23;17.70;;;11.70;;
31724;SDS011;18306;40.960;14.836;2024-03-22T05:59:50;18.08;;;11.60;;
31724;SDS011;18306;40.960;14.836;2024-03-22T06:02:17;19.25;;;11.45;;
31724;SDS011;18306;40.960;14.836;2024-03-22T06:04:44;17.38;;;11.88;;
31724;SDS011;18306;40.960;14.836;2024-03-22T06:07:11;20.35;;;11.80;;
31724;SDS011;18306;40.960;14.836;2024-03-22T06:09:38;18.05;;;12.15;;
31724;SDS011;18306;40.960;14.836;2024-03-22T06:12:15;21.20;;;13.20;;
31724;SDS011;18306;40.960;14.836;2024-03-22T06:14:42;21.40;;;12.95;;
31724;SDS011;18306;40.960;14.836;2024-03-22T06:17:10;19.00;;;13.90;;
31724;SDS011;18306;40.960;14.836;2024-03-22T06:19:37;21.75;;;13.27;;
31724;SDS011;18306;40.960;14.836;2024-03-22T06:22:04;38.05;;;27.55;;
31724;SDS011;18306;40.960;14.836;2024-03-22T06:24:32;20.73;;;14.55;;
31724;SDS011;18306;40.960;14.836;2024-03-22T06:26:59;20.58;;;13.40;;
31724;SDS011;18306;40.960;14.836;2024-03-22T06:29:26;20.83;;;13.50;;
31724;SDS011;18306;40.960;14.836;2024-03-22T06:31:53;22.98;;;14.10;;
31724;SDS011;18306;40.960;14.836;2024-03-22T06:34:20;19.83;;;13.93;;
31724;SDS011;18306;40.960;14.836;2024-03-22T06:36:47;24.42;;;14.38;;
31724;SDS011;18306;40.960;14.836;2024-03-22T06:39:16;19.02;;;13.10;;
31724;SDS011;18306;40.960;14.836;2024-03-22T06:41:44;18.80;;;13.48;;
31724;SDS011;18306;40.960;14.836;2024-03-22T06:44:11;16.70;;;11.88;;
31724;SDS011;18306;40.960;14.836;2024-03-22T07:04:49;17.65;;;14.40;;
31724;SDS011;18306;40.960;14.836;2024-03-22T07:10:23;16.65;;;11.55;;
31724;SDS011;18306;40.960;14.836;2024-03-22T07:12:54;17.40;;;13.57;;
31724;SDS011;18306;40.960;14.836;2024-03-22T07:15:22;18.17;;;13.00;;
31724;SDS011;18306;40.960;14.836;2024-03-22T07:17:50;14.20;;;12.18;;
31724;SDS011;18306;40.960;14.836;2024-03-22T07:20:17;14.55;;;10.68;;
31724;SDS011;18306;40.960;14.836;2024-03-22T07:22:44;18.58;;;12.50;;
31724;SDS011;18306;40.960;14.836;2024-03-22T07:25:12;18.48;;;13.25;;
31724;SDS011;18306;40.960;14.836;2024-03-22T17:23:07;25.13;;;14.95;;
31724;SDS011;18306;40.960;14.836;2024-03-22T17:25:34;19.23;;;13.70;;
31724;SDS011;18306;40.960;14.836;2024-03-22T17:28:02;17.52;;;12.63;;
31724;SDS011;18306;40.960;14.836;2024-03-22T17:30:29;19.67;;;11.93;;
31724;SDS011;18306;40.960;14.836;2024-03-22T17:32:56;15.10;;;10.45;;
31724;SDS011;18306;40.960;14.836;2024-03-22T17:35:23;13.57;;;10.30;;
31724;SDS011;18306;40.960;14.836;2024-03-22T17:37:50;16.30;;;10.13;;
31724;SDS011;18306;40.960;14.836;2024-03-22T17:40:18;16.98;;;11.80;;
31724;SDS011;18306;40.960;14.836;2024-03-22T17:42:45;20.90;;;12.35;;
31724;SDS011;18306;40.960;14.836;2024-03-22T17:53:53;22.58;;;16.83;;
31724;SDS011;18306;40.960;14.836;2024-03-22T17:56:21;18.48;;;12.75;;
31724;SDS011;18306;40.960;14.836;2024-03-22T17:58:48;18.13;;;12.48;;
31724;SDS011;18306;40.960;14.836;2024-03-22T18:01:15;23.10;;;16.30;;
31724;SDS011;18306;40.960;14.836;2024-03-22T18:03:43;20.02;;;13.98;;
31724;SDS011;18306;40.960;14.836;2024-03-22T18:06:10;21.70;;;14.13;;
31724;SDS011;18306;40.960;14.836;2024-03-22T18:08:37;28.10;;;20.42;;
31724;SDS011;18306;40.960;14.836;2024-03-22T18:11:05;26.52;;;16.13;;
31724;SDS011;18306;40.960;14.836;2024-03-22T18:13:32;24.33;;;16.42;;
31724;SDS011;18306;40.960;14.836;2024-03-22T18:16:01;27.55;;;18.67;;
31724;SDS011;18306;40.960;14.836;2024-03-22T18:18:28;34.45;;;24.00;;
31724;SDS011;18306;40.960;14.836;2024-03-22T18:20:56;68.45;;;48.10;;
31724;SDS011;18306;40.960;14.836;2024-03-22T18:23:24;35.08;;;26.08;;
31724;SDS011;18306;40.960;14.836;2024-03-22T18:25:51;20.67;;;16.60;;
31724;SDS011;18306;40.960;14.836;2024-03-22T18:28:17;21.42;;;13.80;;
31724;SDS011;18306;40.960;14.836;2024-03-22T18:30:45;20.98;;;13.73;;
31724;SDS011;18306;40.960;14.836;2024-03-22T18:33:13;20.35;;;13.70;;
31724;SDS011;18306;40.960;14.836;2024-03-22T18:35:44;21.40;;;15.55;;
31724;SDS011;18306;40.960;14.836;2024-03-22T18:38:11;24.77;;;18.63;;
31724;SDS011;18306;40.960;14.836;2024-03-22T18:40:38;20.33;;;17.05;;
31724;SDS011;18306;40.960;14.836;2024-03-22T18:43:06;20.80;;;15.32;;
31724;SDS011;18306;40.960;14.836;2024-03-22T18:45:32;21.85;;;15.73;;
31724;SDS011;18306;40.960;14.836;2024-03-22T18:48:00;44.78;;;35.88;;
31724;SDS011;18306;40.960;14.836;2024-03-22T18:50:27;59.08;;;48.45;;
31724;SDS011;18306;40.960;14.836;2024-03-22T18:52:54;35.17;;;28.55;;
31724;SDS011;18306;40.960;14.836;2024-03-22T18:55:21;36.90;;;32.03;;
31724;SDS011;18306;40.960;14.836;2024-03-22T18:57:48;28.38;;;22.10;;
31724;SDS011;18306;40.960;14.836;2024-03-22T19:00:14;23.92;;;16.75;;
31724;SDS011;18306;40.960;14.836;2024-03-22T19:02:42;24.90;;;16.25;;
31724;SDS011;18306;40.960;14.836;2024-03-22T19:05:09;29.98;;;26.73;;
31724;SDS011;18306;40.960;14.836;2024-03-22T19:07:35;45.05;;;33.95;;
31724;SDS011;18306;40.960;14.836;2024-03-22T19:10:02;40.15;;;31.77;;
31724;SDS011;18306;40.960;14.836;2024-03-22T19:12:29;33.20;;;25.55;;
31724;SDS011;18306;40.960;14.836;2024-03-22T19:14:57;37.28;;;29.45;;
31724;SDS011;18306;40.960;14.836;2024-03-22T19:17:23;36.17;;;30.15;;
31724;SDS011;18306;40.960;14.836;2024-03-22T19:19:50;26.60;;;22.05;;
31724;SDS011;18306;40.960;14.836;2024-03-22T19:22:17;26.10;;;18.17;;
31724;SDS011;18306;40.960;14.836;2024-03-22T19:24:44;20.73;;;15.07;;
31724;SDS011;18306;40.960;14.836;2024-03-22T19:27:11;20.23;;;15.77;;
31724;SDS011;18306;40.960;14.836;2024-03-22T19:29:39;22.92;;;16.42;;
31724;SDS011;18306;40.960;14.836;2024-03-22T19:32:07;61.80;;;46.33;;
31724;SDS011;18306;40.960;14.836;2024-03-22T19:34:35;65.03;;;50.17;;
31724;SDS011;18306;40.960;14.836;2024-03-22T19:37:02;41.65;;;31.90;;
31724;SDS011;18306;40.960;14.836;2024-03-22T19:39:31;25.55;;;16.75;;
31724;SDS011;18306;40.960;14.836;2024-03-22T19:41:58;24.63;;;17.67;;
31724;SDS011;18306;40.960;14.836;2024-03-22T19:44:25;19.50;;;15.70;;
31724;SDS011;18306;40.960;14.836;2024-03-22T19:46:52;20.40;;;15.77;;
31724;SDS011;18306;40.960;14.836;2024-03-22T19:49:19;23.27;;;15.13;;
31724;SDS011;18306;40.960;14.836;2024-03-22T19:51:51;24.95;;;16.13;;
31724;SDS011;18306;40.960;14.836;2024-03-22T19:54:27;19.15;;;14.65;;
31724;SDS011;18306;40.960;14.836;2024-03-22T19:56:54;19.90;;;14.68;;
31724;SDS011;18306;40.960;14.836;2024-03-22T19:59:22;20.20;;;14.43;;
31724;SDS011;18306;40.960;14.836;2024-03-22T20:01:49;21.67;;;15.40;;
31724;SDS011;18306;40.960;14.836;2024-03-22T20:04:16;21.55;;;16.02;;
31724;SDS011;18306;40.960;14.836;2024-03-22T20:06:43;24.23;;;16.25;;
31724;SDS011;18306;40.960;14.836;2024-03-22T20:09:11;19.48;;;15.18;;
31724;SDS011;18306;40.960;14.836;2024-03-22T20:11:40;22.15;;;15.85;;
31724;SDS011;18306;40.960;14.836;2024-03-22T20:14:15;25.45;;;15.63;;
31724;SDS011;18306;40.960;14.836;2024-03-22T20:16:43;23.08;;;15.80;;
31724;SDS011;18306;40.960;14.836;2024-03-22T20:19:09;19.50;;;15.43;;
31724;SDS011;18306;40.960;14.836;2024-03-22T20:21:36;23.85;;;16.45;;
31724;SDS011;18306;40.960;14.836;2024-03-22T20:24:03;22.27;;;17.17;;
31724;SDS011;18306;40.960;14.836;2024-03-22T20:26:31;20.05;;;15.30;;
31724;SDS011;18306;40.960;14.836;2024-03-22T20:28:57;16.90;;;13.85;;
31724;SDS011;18306;40.960;14.836;2024-03-22T20:31:25;18.13;;;13.82;;
31724;SDS011;18306;40.960;14.836;2024-03-22T20:33:51;21.92;;;15.18;;
31724;SDS011;18306;40.960;14.836;2024-03-22T20:36:18;22.15;;;14.80;;
31724;SDS011;18306;40.960;14.836;2024-03-22T20:38:45;21.75;;;15.68;;
